Flight Track Log - Related Links

Times and Time Zones

All times are in EDT time to prevent confusion due to time zone crossing. See the DAL268 flight status page for this flight to view local times or setup timezone preferences in your user account.

Time Position Orientation Groundspeed Altitude Reporting Facility
EDT Latitude Longitude Course Direction KTS MPH feet Rate Location/Type
Thu 02:30:41 PM 37.6230 -122.3700 38° Northeast 166 191 100  Level FlightAware ADS-B
Thu 02:30:50 PM 37.6301 -122.3650 29° Northeast 165 190 600 2,857 Climbing FlightAware ADS-B
Thu 02:31:02 PM 37.6372 -122.3580 38° Northeast 170 196 1,100 2,250 Climbing FlightAware ADS-B
Thu 02:31:06 PM 37.6392 -122.3550 50° Northeast 179 206 1,200 2,000 Climbing FlightAware ADS-B
Thu 02:31:11 PM 37.6418 -122.3510 51° Northeast 185 213 1,400 2,143 Climbing FlightAware ADS-B
Thu 02:31:20 PM 37.6467 -122.3420 55° Northeast 196 226 1,700 1,920 Climbing FlightAware ADS-B
Thu 02:31:36 PM 37.6557 -122.3270 53° Northeast 210 242 2,200 1,935 Climbing FlightAware ADS-B
Thu 02:31:51 PM 37.6651 -122.3120 52° Northeast 225 259 2,700 2,129 Climbing FlightAware ADS-B
Thu 02:32:07 PM 37.6759 -122.2940 53° Northeast 244 281 3,300 2,063 Climbing FlightAware ADS-B
Thu 02:32:23 PM 37.6875 -122.2760 51° Northeast 260 299 3,800 2,333 Climbing FlightAware ADS-B
Thu 02:32:43 PM 37.7034 -122.2520 50° Northeast 271 312 4,700 2,850 Climbing FlightAware ADS-B
Thu 02:33:03 PM 37.7217 -122.2300 44° Northeast 277 319 5,700 2,919 Climbing FlightAware ADS-B
Thu 02:33:20 PM 37.7397 -122.2120 38° Northeast 283 326 6,500 2,727 Climbing FlightAware ADS-B
Thu 02:33:36 PM 37.7562 -122.1970 36° Northeast 290 334 7,200 2,710 Climbing FlightAware ADS-B
Thu 02:33:51 PM 37.7726 -122.1820 36° Northeast 293 337 7,900 2,710 Climbing FlightAware ADS-B
Thu 02:34:07 PM 37.7907 -122.1650 37° Northeast 300 345 8,600 2,625 Climbing FlightAware ADS-B
Thu 02:34:23 PM 37.8083 -122.1490 36° Northeast 306 352 9,300 2,204 Climbing FlightAware ADS-B
Thu 02:34:56 PM 37.8471 -122.1130 36° Northeast 322 371 10,400 1,429 Climbing FlightAware ADS-B
Thu 02:35:26 PM 37.8864 -122.0760 37° Northeast 371 427 10,800 1,000 Climbing FlightAware ADS-B
Thu 02:35:56 PM 37.9300 -122.0350 37° Northeast 404 465 11,400 1,406 Climbing FlightAware ADS-B
Thu 02:36:30 PM 37.9841 -121.9850 36° Northeast 421 484 12,300 1,946 Climbing FlightAware ADS-B
Thu 02:37:10 PM 38.0468 -121.9260 37° Northeast 437 503 13,800 2,188 Climbing FlightAware ADS-B
Thu 02:37:55 PM 38.1210 -121.8570 36° Northeast 446 513 15,400 2,127 Climbing FlightAware ADS-B
Thu 02:38:29 PM 38.1790 -121.8020 37° Northeast 454 522 16,600 2,057 Climbing FlightAware ADS-B
Thu 02:39:05 PM 38.2400 -121.7450 36° Northeast 461 531 17,800 2,083 Climbing FlightAware ADS-B
Thu 02:39:41 PM 38.3000 -121.6870 37° Northeast 464 534 19,100 1,853 Climbing FlightAware ADS-B
Thu 02:40:13 PM 38.3570 -121.6340 36° Northeast 473 544 19,900 1,676 Climbing FlightAware ADS-B
Thu 02:40:49 PM 38.4130 -121.5620 45° Northeast 481 554 21,000 1,667 Climbing FlightAware ADS-B
Thu 02:41:25 PM 38.4630 -121.4820 51° Northeast 491 565 21,900 1,500 Climbing FlightAware ADS-B
Thu 02:41:57 PM 38.5070 -121.4070 53° Northeast 497 572 22,700 1,457 Climbing FlightAware ADS-B
Thu 02:42:35 PM 38.5620 -121.3150 53° Northeast 504 580 23,600 1,333 Climbing FlightAware ADS-B
Thu 02:43:09 PM 38.6090 -121.2360 53° Northeast 510 587 24,300 1,286 Climbing FlightAware ADS-B
Thu 02:43:45 PM 38.6610 -121.1480 53° Northeast 518 596 25,100 1,235 Climbing FlightAware ADS-B
Thu 02:44:17 PM 38.7070 -121.0710 53° Northeast 523 602 25,700 1,235 Climbing FlightAware ADS-B
Thu 02:44:53 PM 38.7590 -120.9830 53° Northeast 526 605 26,500 1,286 Climbing FlightAware ADS-B
Thu 02:45:27 PM 38.8100 -120.8970 53° Northeast 532 612 27,200 1,200 Climbing FlightAware ADS-B
Thu 02:46:03 PM 38.8640 -120.8060 53° Northeast 534 615 27,900 1,521 Climbing FlightAware ADS-B
Thu 02:46:38 PM 38.9150 -120.7190 53° Northeast 528 608 29,000 1,714 Climbing FlightAware ADS-B
Thu 02:47:13 PM 38.9660 -120.6310 53° Northeast 526 605 29,900 1,606 Climbing FlightAware ADS-B
Thu 02:47:49 PM 39.0180 -120.5420 53° Northeast 521 600 30,900 1,676 Climbing FlightAware ADS-B
Thu 02:48:21 PM 39.0630 -120.4640 53° Northeast 518 596 31,800 1,543 Climbing FlightAware ADS-B
Thu 02:48:59 PM 39.1180 -120.3690 53° Northeast 514 592 32,700 1,541 Climbing FlightAware ADS-B
Thu 02:49:35 PM 39.1690 -120.2810 53° Northeast 509 586 33,700 1,826 Climbing FlightAware ADS-B
Thu 02:50:08 PM 39.2150 -120.2010 53° Northeast 497 572 34,800 1,130 Climbing FlightAware ADS-B
Thu 02:50:44 PM 39.2650 -120.1150 53° Northeast 502 578 35,000 167 Climbing FlightAware ADS-B
Thu 02:51:20 PM 39.3160 -120.0260 53° Northeast 510 587 35,000  Level FlightAware ADS-B
Thu 02:51:52 PM 39.3590 -119.9490 54° Northeast 512 589 35,000  Level FlightAware ADS-B
Thu 02:52:30 PM 39.4130 -119.8550 53° Northeast 510 587 35,000  Level FlightAware ADS-B
Thu 02:53:02 PM 39.4570 -119.7770 54° Northeast 512 589 35,000  Level FlightAware ADS-B
Thu 02:53:38 PM 39.5080 -119.6880 53° Northeast 516 594 35,000  Level FlightAware ADS-B
Thu 02:54:14 PM 39.5580 -119.5990 54° Northeast 513 590 35,000  Level FlightAware ADS-B
Thu 02:54:50 PM 39.6100 -119.5080 53° Northeast 515 593 35,000  Level FlightAware ADS-B
Thu 02:55:23 PM 39.6550 -119.4270 54° Northeast 519 597 35,000  Level FlightAware ADS-B
Thu 02:56:00 PM 39.7080 -119.3320 54° Northeast 523 602 35,000 338 Level FlightAware ADS-B
Thu 02:56:34 PM 39.7550 -119.2470 54° Northeast 520 598 35,400 1,114 Climbing FlightAware ADS-B
Thu 02:57:10 PM 39.8050 -119.1580 54° Northeast 512 589 36,300 1,412 Climbing FlightAware ADS-B
Thu 02:57:42 PM 39.8520 -119.0740 54° Northeast 508 585 37,000 600 Climbing FlightAware ADS-B
Thu 02:58:20 PM 39.9030 -118.9810 54° Northeast 513 590 37,000  Level FlightAware ADS-B
Thu 02:58:54 PM 39.9500 -118.8960 54° Northeast 521 600 37,000  Level FlightAware ADS-B
Thu 02:59:30 PM 40.0020 -118.8030 54° Northeast 527 606 37,000  Level FlightAware ADS-B
Thu 03:00:06 PM 40.0500 -118.7150 55° Northeast 528 608 37,000  Level FlightAware ADS-B
Thu 03:00:38 PM 40.0980 -118.6260 55° Northeast 523 602 37,000  Level FlightAware ADS-B
Thu 03:01:12 PM 40.1360 -118.5350 61° Northeast 512 589 37,000  Level FlightAware ADS-B
Thu 03:01:51 PM 40.1690 -118.4240 69° East 508 585 37,000  Level FlightAware ADS-B
Thu 03:02:24 PM 40.1990 -118.3310 67° East 512 589 37,000  Level FlightAware ADS-B
Thu 03:03:00 PM 40.2500 -118.2410 53° Northeast 517 595 37,000  Level FlightAware ADS-B
Thu 03:03:34 PM 40.2980 -118.1600 52° Northeast 519 597 37,000  Level FlightAware ADS-B
Thu 03:04:14 PM 40.3480 -118.0750 52° Northeast 519 597 37,000  Level FlightAware ADS-B
Thu 03:04:50 PM 40.3930 -117.9990 52° Northeast 519 597 37,000  Level FlightAware ADS-B
Thu 03:05:26 PM 40.4380 -117.9230 52° Northeast 519 597 37,000  Level FlightAware ADS-B
Thu 03:06:03 PM 40.4850 -117.8450 52° Northeast 519 597 37,000  Level FlightAware ADS-B
Thu 03:06:42 PM 40.5340 -117.7630 52° Northeast 519 597 37,000  Level FlightAware ADS-B
Thu 03:07:19 PM 40.5800 -117.6840 53° Northeast 519 597 37,000  Level FlightAware ADS-B
Thu 03:07:55 PM 40.6260 -117.6080 51° Northeast 519 597 37,000  Level FlightAware ADS-B
Thu 03:08:31 PM 40.6710 -117.5320 52° Northeast 519 597 37,000  Level FlightAware ADS-B
Thu 03:09:07 PM 40.7160 -117.4550 52° Northeast 519 597 37,000  Level FlightAware ADS-B
Thu 03:09:53 PM 40.7740 -117.3580 52° Northeast 519 597 37,000  Level FlightAware ADS-B
Thu 03:10:27 PM 40.8160 -117.2850 53° Northeast 519 597 37,000  Level FlightAware ADS-B
Thu 03:11:22 PM 40.8860 -117.1680 52° Northeast 519 597 37,000  Level FlightAware ADS-B
Thu 03:11:59 PM 40.9320 -117.0900 52° Northeast 519 597 37,000  Level FlightAware ADS-B
Thu 03:12:34 PM 40.9760 -117.0150 52° Northeast 519 597 37,000  Level FlightAware ADS-B
Thu 03:13:11 PM 41.0220 -116.9360 52° Northeast 519 597 37,000  Level FlightAware ADS-B
Thu 03:17:00 PM 41.0797 -115.9030 85° East 499 574 37,000  Level FlightAware ADS-B
Thu 03:17:34 PM 41.0933 -115.8100 79° East 498 573 37,000  Level FlightAware ADS-B
Thu 03:18:09 PM 41.1006 -115.7600 79° East 496 571 37,000  Level FlightAware ADS-B
Thu 03:18:56 PM 41.1300 -115.5560 79° East 491 565 37,000  Level FlightAware ADS-B
Thu 03:19:32 PM 41.1450 -115.4550 79° East 490 564 37,000  Level FlightAware ADS-B
Thu 03:20:04 PM 41.1590 -115.3560 79° East 490 564 37,000  Level FlightAware ADS-B
Thu 03:20:20 PM 41.1506 -115.4130 259° West 491 565 37,000  Level FlightAware ADS-B
Thu 03:20:39 PM 41.1555 -115.3780 79° East 489 563 37,000  Level FlightAware ADS-B
Thu 03:21:10 PM 41.1844 -115.1730 79° East 490 564 37,000  Level FlightAware ADS-B
Thu 03:21:48 PM 41.1872 -115.1530 79° East 490 564 37,000  Level FlightAware ADS-B
Thu 03:22:28 PM 41.2140 -114.9610 79° East 487 560 37,000  Level FlightAware ADS-B
Thu 03:22:49 PM 41.2176 -114.9340 80° East 486 559 37,000  Level FlightAware ADS-B
Thu 03:23:22 PM 41.2351 -114.8070 80° East 486 559 37,000  Level FlightAware ADS-B
Thu 03:24:07 PM 41.2563 -114.6520 80° East 488 562 37,000  Level FlightAware ADS-B
Thu 03:24:43 PM 41.2610 -114.6160 80° East 488 562 37,000  Level FlightAware ADS-B
Thu 03:25:15 PM 41.2796 -114.4780 80° East 486 559 37,000  Level FlightAware ADS-B
Thu 03:25:37 PM 41.2908 -114.3940 80° East 486 559 37,000  Level FlightAware ADS-B
Thu 03:26:08 PM 41.3038 -114.2960 80° East 485 558 37,000  Level FlightAware ADS-B
Thu 03:26:45 PM 41.3169 -114.1970 80° East 486 559 37,000  Level FlightAware ADS-B
Thu 03:27:15 PM 41.3300 -114.0970 80° East 485 558 37,000  Level FlightAware ADS-B
Thu 03:27:52 PM 41.3356 -114.0530 80° East 485 558 37,000  Level FlightAware ADS-B
Thu 03:28:28 PM 41.3538 -113.9120 80° East 485 558 37,000  Level FlightAware ADS-B
Thu 03:29:01 PM 41.3680 -113.8010 80° East 486 559 37,000  Level FlightAware ADS-B
Thu 03:29:32 PM 41.3787 -113.7180 80° East 486 559 37,000  Level FlightAware ADS-B
Thu 03:30:18 PM 41.3921 -113.6160 80° East 487 560 37,000  Level FlightAware ADS-B
Thu 03:30:58 PM 41.3952 -113.5910 81° East 487 560 37,000  Level FlightAware ADS-B
Thu 03:31:36 PM 41.4279 -113.3330 80° East 486 559 37,000  Level FlightAware ADS-B
Thu 03:32:10 PM 41.4420 -113.2240 80° East 485 558 37,000  Level FlightAware ADS-B
Thu 03:32:22 PM 41.4326 -113.2960 260° West 485 558 37,000  Level FlightAware ADS-B
Thu 03:32:49 PM 41.4343 -113.2820 81° East 485 558 37,000  Level FlightAware ADS-B
Thu 03:33:20 PM 41.4665 -113.0230 80° East 485 558 37,000  Level FlightAware ADS-B
Thu 03:33:59 PM 41.4810 -112.9030 81° East 486 559 37,000  Level FlightAware ADS-B
Thu 03:34:18 PM 41.4746 -112.9560 261° West 485 558 37,000  Level FlightAware ADS-B
Thu 03:34:52 PM 41.4959 -112.7810 81° East 484 557 37,000  Level FlightAware ADS-B
Thu 03:35:24 PM 41.5103 -112.6610 81° East 484 557 37,000  Level FlightAware ADS-B
Thu 03:35:57 PM 41.5220 -112.5620 81° East 485 558 37,000  Level FlightAware ADS-B
Thu 03:36:27 PM 41.5336 -112.4640 81° East 485 558 37,000  Level FlightAware ADS-B
Thu 03:36:59 PM 41.5424 -112.3820 82° East 483 556 37,000  Level FlightAware ADS-B
Thu 03:37:38 PM 41.5519 -112.2900 82° East 484 557 37,000  Level FlightAware ADS-B
Thu 03:38:09 PM 41.5638 -112.1740 82° East 485 558 37,000  Level FlightAware ADS-B
Thu 03:38:42 PM 41.5728 -112.0880 82° East 485 558 37,000  Level FlightAware ADS-B
Thu 03:39:13 PM 41.5837 -111.9820 82° East 484 557 37,000  Level FlightAware ADS-B
Thu 03:39:49 PM 41.5950 -111.8710 82° East 484 557 37,000  Level FlightAware ADS-B
Thu 03:40:02 PM 41.5918 -111.9030 262° West 483 556 37,000  Level FlightAware ADS-B
Thu 03:40:21 PM 41.6036 -111.7860 82° East 483 556 37,000  Level FlightAware ADS-B
Thu 03:40:57 PM 41.6127 -111.6960 82° East 484 557 37,000  Level FlightAware ADS-B
Thu 03:41:27 PM 41.6232 -111.5900 82° East 485 558 37,000  Level FlightAware ADS-B
Thu 03:42:10 PM 41.6265 -111.5570 82° East 485 558 37,000  Level FlightAware ADS-B
Thu 03:42:32 PM 41.6377 -111.4430 82° East 484 557 37,000  Level FlightAware ADS-B
Thu 03:43:02 PM 41.6508 -111.3080 83° East 483 556 37,000  Level FlightAware ADS-B
Thu 03:43:33 PM 41.6537 -111.2770 83° East 483 556 37,000  Level FlightAware ADS-B
Thu 03:44:03 PM 41.6680 -111.1270 83° East 484 557 37,000  Level FlightAware ADS-B
Thu 03:44:43 PM 41.6704 -111.1020 83° East 484 557 37,000  Level FlightAware ADS-B
Thu 03:45:19 PM 41.6865 -110.9300 83° East 484 557 37,000  Level FlightAware ADS-B
Thu 03:45:32 PM 41.6875 -110.9190 83° East 484 557 37,000  Level FlightAware ADS-B
Thu 03:46:23 PM 41.7071 -110.7070 83° East 482 555 37,000  Level FlightAware ADS-B
Thu 03:46:55 PM 41.7129 -110.6420 83° East 481 554 37,000  Level FlightAware ADS-B
Thu 03:47:31 PM 41.7240 -110.5850 75° East 483 556 37,000  Level FlightAware ADS-B
Thu 03:48:07 PM 41.7330 -110.4940 82° East 483 556 37,000  Level FlightAware ADS-B
Thu 03:48:43 PM 41.7430 -110.4040 82° East 483 556 37,000  Level FlightAware ADS-B
Thu 03:49:19 PM 41.7530 -110.3130 82° East 483 556 37,000  Level FlightAware ADS-B
Thu 03:49:55 PM 41.7620 -110.2220 82° East 483 556 37,000  Level FlightAware ADS-B
Thu 03:50:32 PM 41.7720 -110.1290 82° East 483 556 37,000  Level FlightAware ADS-B
Thu 03:51:09 PM 41.7820 -110.0350 82° East 483 556 37,000  Level FlightAware ADS-B
Thu 03:51:46 PM 41.7910 -109.9420 83° East 483 556 37,000  Level FlightAware ADS-B
Thu 03:52:22 PM 41.8010 -109.8510 82° East 483 556 37,000  Level FlightAware ADS-B
Thu 03:52:58 PM 41.8100 -109.7600 82° East 483 556 37,000  Level FlightAware ADS-B
Thu 03:53:34 PM 41.8200 -109.6700 81° East 483 556 37,000  Level FlightAware ADS-B
Thu 03:54:10 PM 41.8290 -109.5790 82° East 483 556 37,000  Level FlightAware ADS-B
Thu 03:54:55 PM 41.8344 -109.2008 82° East 483 556 37,000  Level Denver Center
Thu 03:55:57 PM 41.8483 -109.0281 84° East 482 555 37,000  Level Denver Center
Thu 03:56:59 PM 41.8608 -108.8558 84° East 482 555 37,000  Level Denver Center
Thu 03:58:01 PM 41.8753 -108.6550 84° East 483 556 37,000  Level Denver Center
Thu 03:59:05 PM 41.8881 -108.4828 84° East 483 556 37,000  Level Denver Center
Thu 04:00:07 PM 41.9019 -108.2800 85° East 486 559 37,000  Level Denver Center
Thu 04:01:09 PM 41.9136 -108.1067 85° East 487 560 37,000  Level Denver Center
Thu 04:02:11 PM 41.9303 -107.9047 84° East 487 560 37,000  Level Denver Center
Thu 04:03:13 PM 41.9483 -107.7319 82° East 489 563 37,000  Level Denver Center
Thu 04:04:15 PM 41.9692 -107.5319 82° East 486 559 37,000  Level Denver Center
Thu 04:09:59 PM 42.0630 -106.4910 82° East 488 562 37,000  Level FlightAware ADS-B
Thu 04:10:28 PM 42.0710 -106.4050 83° East 488 562 37,000  Level FlightAware ADS-B
Thu 04:11:03 PM 42.0800 -106.2980 83° East 487 560 37,000  Level FlightAware ADS-B
Thu 04:11:48 PM 42.0910 -106.1620 84° East 488 562 37,000  Level FlightAware ADS-B
Thu 04:12:22 PM 42.1000 -106.0580 83° East 487 560 37,000  Level FlightAware ADS-B
Thu 04:12:58 PM 42.1080 -105.9530 84° East 487 560 37,000  Level FlightAware ADS-B
Thu 04:13:32 PM 42.1170 -105.8500 83° East 486 559 37,000  Level FlightAware ADS-B
Thu 04:14:09 PM 42.1250 -105.7560 83° East 486 559 37,000  Level FlightAware ADS-B
Thu 04:14:46 PM 42.1340 -105.6410 84° East 486 559 37,000  Level FlightAware ADS-B
Thu 04:15:24 PM 42.1430 -105.5430 83° East 486 559 37,000  Level FlightAware ADS-B
Thu 04:15:54 PM 42.1510 -105.4220 85° East 488 562 37,000  Level FlightAware ADS-B
Thu 04:16:32 PM 42.1600 -105.3060 84° East 488 562 37,000  Level FlightAware ADS-B
Thu 04:17:04 PM 42.1670 -105.2080 84° East 488 562 37,000  Level FlightAware ADS-B
Thu 04:17:37 PM 42.1740 -105.1150 84° East 488 562 37,000  Level FlightAware ADS-B
Thu 04:18:15 PM 42.1820 -105.0170 84° East 488 562 37,000  Level FlightAware ADS-B
Thu 04:18:51 PM 42.1890 -104.9250 84° East 488 562 37,000  Level FlightAware ADS-B
Thu 04:19:27 PM 42.1960 -104.8320 84° East 488 562 37,000  Level FlightAware ADS-B
Thu 04:20:04 PM 42.2030 -104.7360 84° East 488 562 37,000  Level FlightAware ADS-B
Thu 04:20:40 PM 42.2140 -104.5570 85° East 487 560 37,000  Level FlightAware ADS-B
Thu 04:21:25 PM 42.2220 -104.4530 84° East 487 560 37,000  Level FlightAware ADS-B
Thu 04:22:02 PM 42.2300 -104.3580 83° East 487 560 37,000  Level FlightAware ADS-B
Thu 04:22:34 PM 42.2370 -104.2310 86° East 485 558 37,000  Level FlightAware ADS-B
Thu 04:23:10 PM 42.2440 -104.1390 84° East 485 558 37,000  Level FlightAware ADS-B
Thu 04:23:46 PM 42.2510 -104.0470 84° East 485 558 37,000  Level FlightAware ADS-B
Thu 04:24:23 PM 42.2590 -103.9520 83° East 485 558 37,000  Level FlightAware ADS-B
Thu 04:24:59 PM 42.2660 -103.8600 84° East 485 558 37,000  Level FlightAware ADS-B
Thu 04:25:35 PM 42.2730 -103.7680 84° East 485 558 37,000  Level FlightAware ADS-B
Thu 04:26:11 PM 42.2800 -103.6750 84° East 485 558 37,000  Level FlightAware ADS-B
Thu 04:26:44 PM 42.2840 -103.4770 88° East 484 557 37,000  Level FlightAware ADS-B
Thu 04:27:20 PM 42.2900 -103.3840 85° East 484 557 37,000  Level FlightAware ADS-B
Thu 04:27:56 PM 42.2960 -103.2920 85° East 484 557 37,000  Level FlightAware ADS-B
Thu 04:28:32 PM 42.3020 -103.2000 85° East 484 557 37,000  Level FlightAware ADS-B
Thu 04:29:08 PM 42.3080 -103.1070 85° East 484 557 37,000  Level FlightAware ADS-B
Thu 04:29:44 PM 42.3140 -103.0150 85° East 484 557 37,000  Level FlightAware ADS-B
Thu 04:30:20 PM 42.3200 -102.9230 85° East 484 557 37,000  Level FlightAware ADS-B
Thu 04:30:56 PM 42.3260 -102.8300 85° East 484 557 37,000  Level FlightAware ADS-B
Thu 04:31:31 PM 42.3330 -102.5990 88° East 485 558 37,000  Level FlightAware ADS-B
Thu 04:32:10 PM 42.3400 -102.4990 85° East 485 558 37,000  Level FlightAware ADS-B
Thu 04:32:44 PM 42.3450 -102.4110 86° East 485 558 37,000  Level FlightAware ADS-B
Thu 04:33:20 PM 42.3510 -102.3190 85° East 485 558 37,000  Level FlightAware ADS-B
Thu 04:33:56 PM 42.3570 -102.2260 85° East 485 558 37,000  Level FlightAware ADS-B
Thu 04:34:32 PM 42.3630 -102.1330 85° East 485 558 37,000  Level FlightAware ADS-B
Thu 04:35:09 PM 42.3700 -102.0380 84° East 485 558 37,000  Level FlightAware ADS-B
Thu 04:35:46 PM 42.3760 -101.9430 85° East 485 558 37,000  Level FlightAware ADS-B
Thu 04:36:22 PM 42.3820 -101.8510 85° East 485 558 37,000  Level FlightAware ADS-B
Thu 04:36:58 PM 42.3880 -101.7580 85° East 485 558 37,000  Level FlightAware ADS-B
Thu 04:37:34 PM 42.3940 -101.6650 85° East 485 558 37,000  Level FlightAware ADS-B
Thu 04:38:11 PM 42.4000 -101.5700 85° East 485 558 37,000  Level FlightAware ADS-B
Thu 04:38:47 PM 42.4060 -101.4770 85° East 485 558 37,000  Level FlightAware ADS-B
Thu 04:39:21 PM 42.4110 -101.3900 86° East 485 558 37,000  Level FlightAware ADS-B
Thu 04:39:57 PM 42.4170 -101.2970 85° East 485 558 37,000  Level FlightAware ADS-B
Thu 04:40:33 PM 42.4230 -101.2050 85° East 485 558 37,000  Level FlightAware ADS-B
Thu 04:41:09 PM 42.4290 -101.1120 85° East 485 558 37,000  Level FlightAware ADS-B
Thu 04:41:39 PM 42.4139 -100.7947 85° East 481 554 37,000  Level Denver Center
Thu 04:42:41 PM 42.4203 -100.5903 88° East 485 558 37,000  Level Denver Center
Thu 04:43:44 PM 42.4256 -100.4153 88° East 485 558 37,000  Level Denver Center
Thu 04:44:46 PM 42.4333 -100.2128 87° East 484 557 37,000  Level Denver Center
Thu 04:45:48 PM 42.4383 -100.0381 88° East 484 557 37,000  Level Denver Center
Thu 04:46:50 PM 42.4433 -99.8611 88° East 486 559 37,000  Level Denver Center
Thu 04:47:52 PM 42.4486 -99.6786 88° East 485 558 37,000  Level Denver Center
Thu 04:48:23 PM 42.4503 -99.5722 89° East 481 554 37,000  Level Minneapolis Center
Thu 04:49:25 PM 42.4558 -99.3894 88° East 483 556 37,000  Level Minneapolis Center
Thu 04:49:55 PM 42.4583 -99.2750 88° East 489 563 37,000  Level Denver Center
Thu 04:50:57 PM 42.4625 -99.0917 88° East 487 560 37,000  Level Denver Center
Thu 04:51:29 PM 42.4647 -99.0192 88° East 489 563 37,000  Level Minneapolis Center
Thu 04:52:31 PM 42.4681 -98.8350 89° East 489 563 37,000  Level Minneapolis Center
Thu 04:53:33 PM 42.4775 -98.6139 87° East 489 563 37,000 275 Level Minneapolis Center
Thu 04:59:47 PM 42.5250 -97.4980 87° East 475 547 39,000 293 Climbing FlightAware ADS-B
Thu 05:00:22 PM 42.5300 -97.3910 86° East 477 549 39,000  Level FlightAware ADS-B
Thu 05:00:59 PM 42.5340 -97.2740 87° East 478 550 39,000  Level FlightAware ADS-B
Thu 05:01:30 PM 42.5380 -97.1850 86° East 479 551 39,000  Level FlightAware ADS-B
Thu 05:02:08 PM 42.5420 -97.0670 87° East 480 552 39,000  Level FlightAware ADS-B
Thu 05:02:37 PM 42.5450 -96.9810 87° East 480 552 39,000  Level FlightAware ADS-B
Thu 05:03:18 PM 42.5490 -96.8610 87° East 480 552 39,000  Level FlightAware ADS-B
Thu 05:03:50 PM 42.5530 -96.7630 87° East 479 551 39,000  Level FlightAware ADS-B
Thu 05:04:27 PM 42.5570 -96.6490 87° East 479 551 39,000  Level FlightAware ADS-B
Thu 05:05:05 PM 42.5600 -96.5360 88° East 478 550 39,000  Level FlightAware ADS-B
Thu 05:05:55 PM 42.5650 -96.4000 87° East 478 550 39,000  Level FlightAware ADS-B
Thu 05:06:25 PM 42.5680 -96.2970 88° East 477 549 39,000  Level FlightAware ADS-B
Thu 05:07:01 PM 42.5710 -96.1890 88° East 476 548 39,000  Level FlightAware ADS-B
Thu 05:07:38 PM 42.5740 -96.0790 88° East 477 549 39,000  Level FlightAware ADS-B
Thu 05:08:15 PM 42.5780 -95.9840 87° East 477 549 39,000  Level FlightAware ADS-B
Thu 05:08:51 PM 42.5810 -95.8920 87° East 477 549 39,000  Level FlightAware ADS-B
Thu 05:09:30 PM 42.5830 -95.7460 89° East 477 549 39,000  Level FlightAware ADS-B
Thu 05:10:05 PM 42.5860 -95.6430 88° East 478 550 39,000  Level FlightAware ADS-B
Thu 05:10:40 PM 42.5890 -95.5370 88° East 478 550 39,000  Level FlightAware ADS-B
Thu 05:10:56 PM 42.5900 -95.4920 88° East 479 551 39,000  Level FlightAware ADS-B
Thu 05:11:44 PM 42.5930 -95.3450 88° East 480 552 39,000  Level FlightAware ADS-B
Thu 05:12:21 PM 42.5950 -95.2330 89° East 481 554 39,000  Level FlightAware ADS-B
Thu 05:12:57 PM 42.5970 -95.1240 89° East 481 554 39,000  Level FlightAware ADS-B
Thu 05:13:28 PM 42.5990 -95.0320 88° East 482 555 39,000  Level FlightAware ADS-B
Thu 05:14:04 PM 42.6010 -94.9270 88° East 482 555 39,000  Level FlightAware ADS-B
Thu 05:14:36 PM 42.6030 -94.8300 88° East 482 555 39,000  Level FlightAware ADS-B
Thu 05:15:14 PM 42.6050 -94.7170 89° East 482 555 39,000  Level FlightAware ADS-B
Thu 05:15:50 PM 42.6070 -94.6080 89° East 481 554 39,000  Level FlightAware ADS-B
Thu 05:16:24 PM 42.6080 -94.5020 89° East 480 552 39,000  Level FlightAware ADS-B
Thu 05:17:01 PM 42.6100 -94.3890 89° East 480 552 39,000  Level FlightAware ADS-B
Thu 05:17:36 PM 42.6110 -94.2870 89° East 480 552 39,000  Level FlightAware ADS-B
Thu 05:18:08 PM 42.6120 -94.1910 89° East 479 551 39,000  Level FlightAware ADS-B
Thu 05:18:42 PM 42.6130 -94.0890 89° East 479 551 39,000  Level FlightAware ADS-B
Thu 05:19:19 PM 42.6140 -93.9750 89° East 479 551 39,000  Level FlightAware ADS-B
Thu 05:19:56 PM 42.6150 -93.8660 89° East 479 551 39,000  Level FlightAware ADS-B
Thu 05:20:30 PM 42.6150 -93.7630 90° East 479 551 39,000  Level FlightAware ADS-B
Thu 05:21:06 PM 42.6160 -93.6540 89° East 479 551 39,000  Level FlightAware ADS-B
Thu 05:21:41 PM 42.6160 -93.5520 90° East 480 552 39,000  Level FlightAware ADS-B
Thu 05:22:13 PM 42.6160 -93.4550 90° East 480 552 39,000  Level FlightAware ADS-B
Thu 05:22:51 PM 42.6170 -93.3400 89° East 479 551 39,000  Level FlightAware ADS-B
Thu 05:23:27 PM 42.6170 -93.2330 90° East 479 551 39,000  Level FlightAware ADS-B
Thu 05:23:59 PM 42.6170 -93.1390 90° East 479 551 39,000  Level FlightAware ADS-B
Thu 05:24:36 PM 42.6170 -93.0240 90° East 478 550 39,000  Level FlightAware ADS-B
Thu 05:25:07 PM 42.6160 -92.9350 91° East 478 550 39,000  Level FlightAware ADS-B
Thu 05:25:42 PM 42.6160 -92.8270 90° East 478 550 39,000  Level FlightAware ADS-B
Thu 05:26:21 PM 42.6160 -92.7120 90° East 479 551 39,000  Level FlightAware ADS-B
Thu 05:26:53 PM 42.6150 -92.6150 91° East 479 551 39,000  Level FlightAware ADS-B
Thu 05:27:30 PM 42.6150 -92.5030 90° East 480 552 39,000  Level FlightAware ADS-B
Thu 05:28:05 PM 42.6140 -92.4020 91° East 481 554 39,000  Level FlightAware ADS-B
Thu 05:28:37 PM 42.6130 -92.3030 91° East 481 554 39,000  Level FlightAware ADS-B
Thu 05:29:09 PM 42.6130 -92.2110 90° East 482 555 39,000  Level FlightAware ADS-B
Thu 05:29:51 PM 42.6120 -92.0840 91° East 482 555 39,000  Level FlightAware ADS-B
Thu 05:30:24 PM 42.6110 -91.9840 91° East 482 555 39,000  Level FlightAware ADS-B
Thu 05:30:55 PM 42.6100 -91.8900 91° East 482 555 39,000  Level FlightAware ADS-B
Thu 05:31:37 PM 42.6080 -91.7600 91° East 483 556 39,000  Level FlightAware ADS-B
Thu 05:32:11 PM 42.6070 -91.6570 91° East 483 556 39,000  Level FlightAware ADS-B
Thu 05:32:43 PM 42.6050 -91.5620 92° East 484 557 39,000  Level FlightAware ADS-B
Thu 05:33:21 PM 42.6040 -91.4460 91° East 485 558 39,000  Level FlightAware ADS-B
Thu 05:33:57 PM 42.6020 -91.3370 91° East 485 558 39,000  Level FlightAware ADS-B
Thu 05:34:28 PM 42.6010 -91.2410 91° East 485 558 39,000  Level FlightAware ADS-B
Thu 05:35:01 PM 42.5990 -91.1420 92° East 486 559 39,000  Level FlightAware ADS-B
Thu 05:35:38 PM 42.5970 -91.0370 91° East 487 560 39,000  Level FlightAware ADS-B
Thu 05:36:14 PM 42.5950 -90.9260 91° East 487 560 39,000  Level FlightAware ADS-B
Thu 05:36:49 PM 42.5930 -90.8190 91° East 488 562 39,000  Level FlightAware ADS-B
Thu 05:37:25 PM 42.5900 -90.7050 92° East 488 562 39,000  Level FlightAware ADS-B
Thu 05:37:57 PM 42.5880 -90.6080 92° East 488 562 39,000  Level FlightAware ADS-B
Thu 05:38:24 PM 42.5860 -90.5290 92° East 488 562 39,000  Level FlightAware ADS-B
Thu 05:39:04 PM 42.5830 -90.4010 92° East 488 562 39,000  Level FlightAware ADS-B
Thu 05:39:44 PM 42.5800 -90.2820 92° East 489 563 39,000  Level FlightAware ADS-B
Thu 05:40:21 PM 42.5770 -90.1690 92° East 488 562 39,000  Level FlightAware ADS-B
Thu 05:40:57 PM 42.5740 -90.0560 92° East 488 562 39,000  Level FlightAware ADS-B
Thu 05:41:37 PM 42.5710 -89.9390 92° East 488 562 39,000  Level FlightAware ADS-B
Thu 05:42:07 PM 42.5680 -89.8450 92° East 488 562 39,000  Level FlightAware ADS-B
Thu 05:42:47 PM 42.5650 -89.7210 92° East 488 562 39,000  Level FlightAware ADS-B
Thu 05:43:23 PM 42.5620 -89.6160 92° East 487 560 39,000  Level FlightAware ADS-B
Thu 05:43:55 PM 42.5590 -89.5180 92° East 487 560 39,000  Level FlightAware ADS-B
Thu 05:44:31 PM 42.5550 -89.4050 93° East 487 560 39,000  Level FlightAware ADS-B
Thu 05:45:07 PM 42.5510 -89.2930 93° East 486 559 39,000  Level FlightAware ADS-B
Thu 05:45:39 PM 42.5480 -89.2000 92° East 485 558 39,000  Level FlightAware ADS-B
Thu 05:46:14 PM 42.5440 -89.0940 93° East 485 558 39,000  Level FlightAware ADS-B
Thu 05:46:51 PM 42.5400 -88.9820 93° East 483 556 39,000  Level FlightAware ADS-B
Thu 05:47:27 PM 42.5360 -88.8730 93° East 482 555 39,000  Level FlightAware ADS-B
Thu 05:48:03 PM 42.5320 -88.7690 93° East 481 554 39,000  Level FlightAware ADS-B
Thu 05:48:35 PM 42.5280 -88.6710 93° East 480 552 39,000  Level FlightAware ADS-B
Thu 05:49:11 PM 42.5240 -88.5610 93° East 479 551 39,000  Level FlightAware ADS-B
Thu 05:49:47 PM 42.5200 -88.4530 93° East 478 550 39,000  Level FlightAware ADS-B
Thu 05:50:23 PM 42.5150 -88.3460 94° East 477 549 39,000  Level FlightAware ADS-B
Thu 05:50:57 PM 42.5110 -88.2440 93° East 476 548 39,000  Level FlightAware ADS-B
Thu 05:51:29 PM 42.5070 -88.1510 93° East 475 547 39,000  Level FlightAware ADS-B
Thu 05:52:05 PM 42.5020 -88.0400 93° East 474 545 39,000  Level FlightAware ADS-B
Thu 05:52:41 PM 42.5000 -87.9350 91° East 472 543 39,000  Level FlightAware ADS-B
Thu 05:53:13 PM 42.5000 -87.8410 90° East 472 543 39,000  Level FlightAware ADS-B
Thu 05:53:51 PM 42.5000 -87.7300 90° East 472 543 39,000  Level FlightAware ADS-B
Thu 05:54:25 PM 42.4990 -87.6300 91° East 471 542 39,000  Level FlightAware ADS-B
Thu 05:55:01 PM 42.4990 -87.5290 90° East 470 541 39,000  Level FlightAware ADS-B
Thu 05:55:37 PM 42.4990 -87.4260 90° East 470 541 39,000  Level FlightAware ADS-B
Thu 05:56:10 PM 42.4980 -87.3220 91° East 470 541 39,000  Level FlightAware ADS-B
Thu 05:56:47 PM 42.4980 -87.2130 90° East 470 541 39,000  Level FlightAware ADS-B
Thu 05:57:21 PM 42.4970 -87.1150 91° East 470 541 39,000  Level FlightAware ADS-B
Thu 05:57:59 PM 42.4960 -87.0070 91° East 470 541 39,000  Level FlightAware ADS-B
Thu 05:58:28 PM 42.4950 -86.9140 91° East 470 541 39,000  Level FlightAware ADS-B
Thu 05:59:07 PM 42.4940 -86.8040 91° East 470 541 39,000  Level FlightAware ADS-B
Thu 05:59:38 PM 42.4930 -86.7110 91° East 470 541 39,000  Level FlightAware ADS-B
Thu 06:00:10 PM 42.4920 -86.6160 91° East 470 541 39,000  Level FlightAware ADS-B
Thu 06:00:52 PM 42.4910 -86.4930 91° East 469 540 39,000  Level FlightAware ADS-B
Thu 06:01:23 PM 42.4890 -86.4040 92° East 469 540 39,000  Level FlightAware ADS-B
Thu 06:02:02 PM 42.4880 -86.2890 91° East 470 541 39,000  Level FlightAware ADS-B
Thu 06:02:37 PM 42.4860 -86.1870 91° East 471 542 39,000  Level FlightAware ADS-B
Thu 06:03:19 PM 42.4840 -86.0670 91° East 471 542 39,000  Level FlightAware ADS-B
Thu 06:03:53 PM 42.4830 -85.9640 91° East 471 542 39,000  Level FlightAware ADS-B
Thu 06:04:31 PM 42.4810 -85.8520 91° East 472 543 39,000  Level FlightAware ADS-B
Thu 06:05:07 PM 42.4790 -85.7470 91° East 472 543 39,000  Level FlightAware ADS-B
Thu 06:05:39 PM 42.4770 -85.6530 92° East 473 544 39,000  Level FlightAware ADS-B
Thu 06:06:09 PM 42.4750 -85.5590 92° East 474 545 39,000  Level FlightAware ADS-B
Thu 06:06:51 PM 42.4720 -85.4420 92° East 475 547 39,000  Level FlightAware ADS-B
Thu 06:07:21 PM 42.4700 -85.3510 92° East 476 548 39,000  Level FlightAware ADS-B
Thu 06:07:59 PM 42.4680 -85.2390 91° East 476 548 39,000  Level FlightAware ADS-B
Thu 06:08:36 PM 42.4650 -85.1230 92° East 477 549 39,000  Level FlightAware ADS-B
Thu 06:09:09 PM 42.4620 -85.0260 92° East 477 549 39,000  Level FlightAware ADS-B
Thu 06:09:43 PM 42.4600 -84.9370 92° East 477 549 39,000  Level FlightAware ADS-B
Thu 06:10:21 PM 42.4570 -84.8090 92° East 477 549 39,000  Level FlightAware ADS-B
Thu 06:10:54 PM 42.4540 -84.7150 92° East 478 550 39,000  Level FlightAware ADS-B
Thu 06:11:36 PM 42.4500 -84.5900 92° East 478 550 39,000  Level FlightAware ADS-B
Thu 06:12:11 PM 42.4470 -84.4830 92° East 478 550 39,000  Level FlightAware ADS-B
Thu 06:12:48 PM 42.4440 -84.3730 92° East 479 551 39,000  Level FlightAware ADS-B
Thu 06:13:20 PM 42.4410 -84.2820 93° East 478 550 39,000  Level FlightAware ADS-B
Thu 06:13:53 PM 42.4380 -84.1810 92° East 479 551 39,000  Level FlightAware ADS-B
Thu 06:14:30 PM 42.4340 -84.0670 93° East 480 552 39,000  Level FlightAware ADS-B
Thu 06:15:06 PM 42.4300 -83.9610 93° East 481 554 39,000  Level FlightAware ADS-B
Thu 06:15:42 PM 42.4260 -83.8510 93° East 481 554 39,000  Level FlightAware ADS-B
Thu 06:16:19 PM 42.4220 -83.7430 93° East 482 555 39,000  Level FlightAware ADS-B
Thu 06:16:50 PM 42.4180 -83.6440 93° East 483 556 39,000  Level FlightAware ADS-B
Thu 06:17:26 PM 42.4140 -83.5380 93° East 485 558 39,000  Level FlightAware ADS-B
Thu 06:18:04 PM 42.4100 -83.4230 93° East 486 559 39,000  Level FlightAware ADS-B
Thu 06:18:36 PM 42.4060 -83.3250 93° East 487 560 39,000  Level FlightAware ADS-B
Thu 06:19:12 PM 42.4020 -83.2170 93° East 487 560 39,000  Level FlightAware ADS-B
Thu 06:19:44 PM 42.3980 -83.1200 93° East 488 562 39,000  Level FlightAware ADS-B
Thu 06:20:20 PM 42.3930 -83.0110 94° East 489 563 39,000  Level FlightAware ADS-B
Thu 06:20:58 PM 42.3880 -82.8950 93° East 489 563 39,000  Level FlightAware ADS-B
Thu 06:21:34 PM 42.3830 -82.7830 93° East 490 564 39,000  Level FlightAware ADS-B
Thu 06:22:06 PM 42.3780 -82.6850 94° East 490 564 39,000  Level FlightAware ADS-B
Thu 06:22:40 PM 42.3740 -82.5820 93° East 491 565 39,000  Level FlightAware ADS-B
Thu 06:23:16 PM 42.3700 -82.4700 93° East 491 565 39,000  Level FlightAware ADS-B
Thu 06:23:52 PM 42.3660 -82.3620 93° East 492 566 39,000  Level FlightAware ADS-B
Thu 06:24:28 PM 42.3610 -82.2490 93° East 492 566 39,000  Level FlightAware ADS-B
Thu 06:25:02 PM 42.3570 -82.1520 93° East 491 565 39,000  Level FlightAware ADS-B
Thu 06:25:34 PM 42.3530 -82.0600 93° East 493 567 39,000  Level FlightAware ADS-B
Thu 06:26:09 PM 42.3480 -81.9430 93° East 492 566 39,000  Level FlightAware ADS-B
Thu 06:26:44 PM 42.3430 -81.8390 94° East 493 567 39,000  Level FlightAware ADS-B
Thu 06:27:29 PM 42.3380 -81.7270 93° East 492 566 39,000  Level FlightAware ADS-B
Thu 06:28:09 PM 42.3320 -81.5890 93° East 493 567 39,000  Level FlightAware ADS-B
Thu 06:28:40 PM 42.3270 -81.4960 94° East 493 567 39,000  Level FlightAware ADS-B
Thu 06:29:18 PM 42.3220 -81.3850 93° East 494 568 39,000  Level FlightAware ADS-B
Thu 06:29:50 PM 42.3170 -81.2820 94° East 495 570 39,000  Level FlightAware ADS-B
Thu 06:30:31 PM 42.3110 -81.1570 94° East 495 570 39,000  Level FlightAware ADS-B
Thu 06:31:03 PM 42.3060 -81.0560 94° East 496 571 39,000  Level FlightAware ADS-B
Thu 06:31:36 PM 42.3000 -80.9560 95° East 496 571 39,000  Level FlightAware ADS-B
Thu 06:32:16 PM 42.2940 -80.8310 94° East 497 572 39,000  Level FlightAware ADS-B
Thu 06:32:50 PM 42.2880 -80.7300 95° East 497 572 39,000  Level FlightAware ADS-B
Thu 06:33:23 PM 42.2830 -80.6300 94° East 497 572 39,000  Level FlightAware ADS-B
Thu 06:33:55 PM 42.2770 -80.5270 94° East 497 572 39,000  Level FlightAware ADS-B
Thu 06:34:35 PM 42.2620 -80.4030 99° East 503 579 39,000  Level FlightAware ADS-B
Thu 06:35:08 PM 42.2460 -80.3120 103° East 503 579 39,000  Level FlightAware ADS-B
Thu 06:35:45 PM 42.2260 -80.2020 104° East 503 579 39,000  Level FlightAware ADS-B
Thu 06:36:18 PM 42.2090 -80.0990 103° East 504 580 39,000  Level FlightAware ADS-B
Thu 06:36:58 PM 42.1880 -79.9640 102° East 505 581 39,000  Level FlightAware ADS-B
Thu 06:37:39 PM 42.1670 -79.8390 103° East 506 582 39,000  Level FlightAware ADS-B
Thu 06:38:10 PM 42.1510 -79.7360 102° East 505 581 39,000  Level FlightAware ADS-B
Thu 06:38:46 PM 42.1310 -79.6170 103° East 505 581 39,000  Level FlightAware ADS-B
Thu 06:39:24 PM 42.1120 -79.5000 102° East 507 583 39,000  Level FlightAware ADS-B
Thu 06:39:59 PM 42.0940 -79.3940 103° East 507 583 39,000  Level FlightAware ADS-B
Thu 06:40:32 PM 42.0770 -79.2920 103° East 506 582 39,000  Level FlightAware ADS-B
Thu 06:41:08 PM 42.0580 -79.1810 103° East 506 582 39,000  Level FlightAware ADS-B
Thu 06:41:44 PM 42.0390 -79.0700 103° East 509 586 39,000  Level FlightAware ADS-B
Thu 06:42:20 PM 42.0190 -78.9580 103° East 509 586 39,000  Level FlightAware ADS-B
Thu 06:42:54 PM 42.0000 -78.8550 104° East 510 587 39,000  Level FlightAware ADS-B
Thu 06:43:30 PM 41.9800 -78.7430 103° East 510 587 39,000  Level FlightAware ADS-B
Thu 06:44:02 PM 41.9620 -78.6440 104° East 510 587 39,000  Level FlightAware ADS-B
Thu 06:44:38 PM 41.9420 -78.5350 104° East 511 588 39,000  Level FlightAware ADS-B
Thu 06:45:12 PM 41.9230 -78.4300 104° East 511 588 39,000  Level FlightAware ADS-B
Thu 06:45:46 PM 41.9030 -78.3260 104° East 511 588 39,000  Level FlightAware ADS-B
Thu 06:46:24 PM 41.8820 -78.2090 104° East 512 589 39,000  Level FlightAware ADS-B
Thu 06:47:00 PM 41.8610 -78.0980 104° East 514 592 39,000  Level FlightAware ADS-B
Thu 06:47:32 PM 41.8430 -78.0040 104° East 515 593 39,000  Level FlightAware ADS-B
Thu 06:48:08 PM 41.8220 -77.8900 104° East 515 593 39,000  Level FlightAware ADS-B
Thu 06:48:44 PM 41.8000 -77.7770 105° East 515 593 39,000  Level FlightAware ADS-B
Thu 06:49:20 PM 41.7800 -77.6720 104° East 515 593 39,000  Level FlightAware ADS-B
Thu 06:49:52 PM 41.7600 -77.5700 105° East 515 593 39,000  Level FlightAware ADS-B
Thu 06:50:28 PM 41.7390 -77.4590 104° East 516 594 39,000  Level FlightAware ADS-B
Thu 06:51:04 PM 41.7170 -77.3460 105° East 517 595 39,000  Level FlightAware ADS-B
Thu 06:51:38 PM 41.6960 -77.2400 105° East 518 596 39,000  Level FlightAware ADS-B
Thu 06:52:12 PM 41.6740 -77.1380 106° East 523 602 39,000  Level FlightAware ADS-B
Thu 06:52:46 PM 41.6480 -77.0360 109° East 525 604 39,000  Level FlightAware ADS-B
Thu 06:53:24 PM 41.6160 -76.9180 110° East 525 604 39,000  Level FlightAware ADS-B
Thu 06:54:00 PM 41.5860 -76.8100 110° East 527 606 39,000  Level FlightAware ADS-B
Thu 06:54:32 PM 41.5590 -76.7110 110° East 526 605 39,000  Level FlightAware ADS-B
Thu 06:55:08 PM 41.5300 -76.6040 110° East 525 604 39,000 -82 Level FlightAware ADS-B
Thu 06:55:45 PM 41.4980 -76.4880 110° East 521 600 38,900 -537 Descending FlightAware ADS-B
Thu 06:56:15 PM 41.4730 -76.3990 111° Southeast 522 601 38,400 -1,701 Descending FlightAware ADS-B
Thu 06:56:52 PM 41.4410 -76.2830 110° East 540 621 37,000 -1,800 Descending FlightAware ADS-B
Thu 06:57:25 PM 41.4120 -76.1820 111° Southeast 546 628 36,300 -2,167 Descending FlightAware ADS-B
Thu 06:58:04 PM 41.3770 -76.0560 110° East 556 640 34,400 -3,333 Descending FlightAware ADS-B
Thu 06:58:37 PM 41.3480 -75.9530 111° Southeast 565 650 32,300 -3,761 Descending FlightAware ADS-B
Thu 06:59:11 PM 41.3170 -75.8440 111° Southeast 569 655 30,200 -3,343 Descending FlightAware ADS-B
Thu 06:59:47 PM 41.2840 -75.7280 111° Southeast 559 643 28,400 -2,712 Descending FlightAware ADS-B
Thu 07:00:24 PM 41.2460 -75.6080 113° Southeast 546 628 26,900 -2,400 Descending FlightAware ADS-B
Thu 07:00:57 PM 41.2150 -75.5150 114° Southeast 536 617 25,600 -2,471 Descending FlightAware ADS-B
Thu 07:01:32 PM 41.1790 -75.4080 114° Southeast 523 602 24,100 -2,143 Descending FlightAware ADS-B
Thu 07:02:07 PM 41.1450 -75.3060 114° Southeast 508 585 23,100 -943 Descending FlightAware ADS-B
Thu 07:02:42 PM 41.1100 -75.2040 114° Southeast 514 592 23,000 -83 Descending FlightAware ADS-B
Thu 07:03:19 PM 41.0760 -75.1030 114° Southeast 514 592 23,000  Level FlightAware ADS-B
Thu 07:03:51 PM 41.0440 -75.0100 114° Southeast 513 590 23,000  Level FlightAware ADS-B
Thu 07:04:26 PM 41.0100 -74.9050 113° Southeast 513 590 23,000 -85 Level FlightAware ADS-B
Thu 07:05:02 PM 40.9900 -74.8080 105° East 511 588 22,900 -1,083 Descending FlightAware ADS-B
Thu 07:05:38 PM 40.9750 -74.6860 99° East 500 575 21,700 -1,957 Descending FlightAware ADS-B
Thu 07:05:48 PM 40.9719 -74.6556 98° East 500 575 21,400 -2,118 Descending FlightAware ADS-B
Thu 07:06:46 PM 40.9540 -74.4870 98° East 481 554 19,300 -1,440 Descending FlightAware ADS-B
Thu 07:07:28 PM 40.9413 -74.3686 98° East 436 502 19,000 -250 Descending FlightAware ADS-B
Thu 07:07:58 PM 40.9328 -74.2924 98° East 401 461 19,000  Level FlightAware ADS-B
Thu 07:08:33 PM 40.9234 -74.2084 98° East 391 450 19,000  Level FlightAware ADS-B
Thu 07:08:55 PM 40.9162 -74.1570 100° East 390 449 19,000  Level FlightAware ADS-B
Thu 07:09:07 PM 40.9093 -74.1307 109° East 390 449 19,000 -400 Level FlightAware ADS-B
Thu 07:09:25 PM 40.8945 -74.0924 117° Southeast 387 445 18,800 -1,250 Descending FlightAware ADS-B
Thu 07:09:55 PM 40.8657 -74.0323 122° Southeast 386 444 18,000 -1,662 Descending FlightAware ADS-B
Thu 07:10:30 PM 40.8314 -73.9644 124° Southeast 386 444 17,000 -1,400 Descending FlightAware ADS-B
Thu 07:11:25 PM 40.7790 -73.8600 124° Southeast 375 432 15,900 -985 Descending FlightAware ADS-B
Thu 07:11:37 PM 40.7666 -73.8342 122° Southeast 374 430 15,900 -133 Level FlightAware ADS-B
Thu 07:12:10 PM 40.7350 -73.7730 124° Southeast 369 425 15,800 -1,235 Descending FlightAware ADS-B
Thu 07:12:45 PM 40.6940 -73.7180 135° Southeast 351 404 14,500 -2,149 Descending FlightAware ADS-B
Thu 07:13:17 PM 40.6590 -73.6790 140° Southeast 322 371 13,400 -2,149 Descending FlightAware ADS-B
Thu 07:13:52 PM 40.6120 -73.6540 158° South 304 350 12,100 -2,647 Descending FlightAware ADS-B
Thu 07:14:25 PM 40.5670 -73.6330 160° South 308 354 10,400 -2,939 Descending FlightAware ADS-B
Thu 07:14:41 PM 40.5440 -73.6230 162° South 307 353 9,700 -2,500 Descending FlightAware ADS-B
Thu 07:15:01 PM 40.5170 -73.6130 164° South 301 346 8,900 -2,357 Descending FlightAware ADS-B
Thu 07:15:09 PM 40.5060 -73.6120 176° South 293 337 8,600 -1,929 Descending FlightAware ADS-B
Thu 07:15:29 PM 40.4800 -73.6170 188° South 276 318 8,000 -2,057 Descending FlightAware ADS-B
Thu 07:15:44 PM 40.4620 -73.6220 192° South 272 313 7,400 -2,333 Descending FlightAware ADS-B
Thu 07:16:05 PM 40.4370 -73.6300 194° South 269 310 6,600 -2,250 Descending FlightAware ADS-B
Thu 07:16:24 PM 40.4130 -73.6380 194° South 273 314 5,900 -2,229 Descending FlightAware ADS-B
Thu 07:16:40 PM 40.3940 -73.6440 194° South 276 318 5,300 -1,688 Descending FlightAware ADS-B
Thu 07:16:56 PM 40.3760 -73.6500 194° South 278 320 5,000 -1,231 Descending FlightAware ADS-B
Thu 07:17:19 PM 40.3480 -73.6600 195° South 277 319 4,500 -1,355 Descending FlightAware ADS-B
Thu 07:17:27 PM 40.3380 -73.6660 205° Southwest 273 314 4,300 -1,636 Descending FlightAware ADS-B
Thu 07:17:41 PM 40.3260 -73.6850 230° Southwest 269 310 3,900 -1,500 Descending FlightAware ADS-B
Thu 07:17:47 PM 40.3230 -73.6950 249° West 261 300 3,800 -1,750 Descending FlightAware ADS-B
Thu 07:18:05 PM 40.3170 -73.7210 253° West 259 298 3,200 -818 Descending FlightAware ADS-B
Thu 07:18:31 PM 40.3090 -73.7540 252° West 259 298 3,200 -1,625 Level FlightAware ADS-B
Thu 07:18:53 PM 40.3200 -73.7940 290° West 249 287 1,900 -1,625 Descending FlightAware ADS-B
Thu 07:19:19 PM 40.3320 -73.8250 297° West 240 276 1,900  Level FlightAware ADS-B
Thu 07:19:31 PM 40.3410 -73.8370 315° West 224 258 1,900  Level FlightAware ADS-B
Thu 07:19:55 PM 40.3620 -73.8550 327° Northwest 203 234 1,900  Level FlightAware ADS-B
Thu 07:20:15 PM 40.3770 -73.8680 327° Northwest 193 222 1,900  Level FlightAware ADS-B
Thu 07:20:35 PM 40.3910 -73.8800 327° Northwest 193 222 1,900  Level FlightAware ADS-B
Thu 07:20:49 PM 40.4040 -73.8850 344° North 193 222 1,900  Level FlightAware ADS-B
Thu 07:21:09 PM 40.4200 -73.8860 357° North 199 229 1,900  Level FlightAware ADS-B
Thu 07:21:31 PM 40.4430 -73.8860 360° North 198 228 1,900  Level FlightAware ADS-B
Thu 07:21:55 PM 40.4640 -73.8860 360° North 188 216 1,900  Level FlightAware ADS-B
Thu 07:22:18 PM 40.4800 -73.8800 16° North 175 201 1,900  Level FlightAware ADS-B
Thu 07:22:33 PM 40.4920 -73.8740 21° North 172 198 1,900  Level FlightAware ADS-B
Thu 07:22:53 PM 40.5060 -73.8640 29° Northeast 174 200 1,900  Level FlightAware ADS-B
Thu 07:23:13 PM 40.5180 -73.8540 32° Northeast 173 199 1,900  Level FlightAware ADS-B
Thu 07:23:33 PM 40.5330 -73.8420 31° Northeast 173 199 1,900  Level FlightAware ADS-B
Thu 07:23:43 PM 40.5400 -73.8370 28° Northeast 174 200 1,900 -774 Level FlightAware ADS-B
Thu 07:24:04 PM 40.5550 -73.8250 31° Northeast 167 192 1,500 -1,000 Descending FlightAware ADS-B
Thu 07:24:19 PM 40.5650 -73.8170 31° Northeast 152 175 1,300 -686 Descending FlightAware ADS-B
Thu 07:24:39 PM 40.5750 -73.8090 31° Northeast 135 155 1,100 -600 Descending FlightAware ADS-B
Thu 07:24:59 PM 40.5840 -73.8030 27° Northeast 129 148 900 -783 Descending FlightAware ADS-B
Thu 07:25:25 PM 40.6000 -73.7900 32° Northeast 126 145 500 -750 Descending FlightAware ADS-B
Thu 07:25:47 PM 40.6120 -73.7810 30° Northeast 134 154 300 -727 Descending FlightAware ADS-B
Thu 07:25:58 PM 40.6180 -73.7760 32° Northeast 134 154 100 -1,091 Descending FlightAware ADS-B
Thu 07:26:18 PM 40.6280 -73.7680 31° Northeast 127 146 -300 Descending FlightAware ADS-B

Login

Don't have an account? Register now (free) for customized features, flight alerts, and more!